createdAt,value
2022-08-23T00:02:25.632Z,100927.88
2022-08-23T00:05:09.197Z,100927.69
2022-08-23T00:07:39.245Z,100935.63
2022-08-23T00:10:08.433Z,100929.63
2022-08-23T00:12:36.394Z,100930.91
2022-08-23T00:15:07.307Z,100928.53
2022-08-23T00:17:35.937Z,100920.56
2022-08-23T00:20:05.321Z,100918.00
2022-08-23T00:22:33.412Z,100923.13
2022-08-23T00:25:01.485Z,100916.06
2022-08-23T00:27:29.568Z,100911.78
2022-08-23T00:29:58.841Z,100914.97
2022-08-23T00:32:29.925Z,100906.19
2022-08-23T00:34:58.493Z,100901.47
2022-08-23T00:37:27.646Z,100898.25
2022-08-23T00:39:55.760Z,100898.91
2022-08-23T00:42:45.767Z,100897.81
2022-08-23T00:45:33.290Z,100899.53
2022-08-23T00:48:03.912Z,100898.66
2022-08-23T00:50:34.018Z,100904.88
2022-08-23T00:53:03.896Z,100901.00
2022-08-23T00:55:32.227Z,100902.50
2022-08-23T00:58:00.413Z,100913.19
2022-08-23T01:00:29.346Z,100904.38
2022-08-23T01:02:58.171Z,100906.75
2022-08-23T01:05:31.387Z,100921.09
2022-08-23T01:08:00.461Z,100924.53
2022-08-23T01:10:30.668Z,100926.00
2022-08-23T01:13:03.317Z,100929.25
2022-08-23T01:15:34.285Z,100920.41
2022-08-23T01:18:04.045Z,100923.63
2022-08-23T01:20:36.676Z,100922.31
2022-08-23T01:23:09.082Z,100924.66
2022-08-23T01:25:39.198Z,100934.31
2022-08-23T01:28:07.278Z,100933.00
2022-08-23T01:30:36.079Z,100934.25
2022-08-23T01:33:06.321Z,100931.91
2022-08-23T01:35:38.004Z,100928.66
2022-08-23T01:38:06.204Z,100934.88
2022-08-23T01:40:35.732Z,100931.59
2022-08-23T01:43:06.089Z,100930.13
2022-08-23T01:45:34.416Z,100930.50
2022-08-23T01:48:03.451Z,100932.84
2022-08-23T01:50:32.440Z,100936.06
2022-08-23T01:53:01.034Z,100942.03
2022-08-23T01:55:30.578Z,100946.06
2022-08-23T01:57:59.873Z,100940.94
2022-08-23T02:00:32.985Z,100947.97
2022-08-23T02:03:01.871Z,100946.88
2022-08-23T02:05:30.705Z,100947.25
2022-08-23T02:08:19.426Z,100941.25
2022-08-23T02:10:48.487Z,100942.72
2022-08-23T02:13:17.268Z,100944.84
2022-08-23T02:15:47.392Z,100942.69
2022-08-23T02:18:15.359Z,100954.00
2022-08-23T02:20:45.967Z,100956.13
2022-08-23T02:23:14.394Z,100952.91
2022-08-23T02:25:42.717Z,100939.19
2022-08-23T02:28:11.773Z,100943.22
2022-08-23T02:30:40.205Z,100951.81
2022-08-23T02:33:13.084Z,100951.09
2022-08-23T02:35:43.683Z,100956.00
2022-08-23T02:38:12.853Z,100960.91
2022-08-23T02:40:42.377Z,100963.88
2022-08-23T02:43:10.458Z,100962.19
2022-08-23T02:45:39.731Z,100959.59
2022-08-23T02:48:08.293Z,100958.94
2022-08-23T02:50:46.827Z,100962.13
2022-08-23T02:53:14.896Z,100962.53
2022-08-23T02:55:45.871Z,100961.69
2022-08-23T02:58:14.067Z,100968.69
2022-08-23T03:00:42.261Z,100966.31
2022-08-23T03:03:10.589Z,100963.06
2022-08-23T03:05:40.477Z,100959.84
2022-08-23T03:08:10.111Z,100966.84
2022-08-23T03:10:46.586Z,100965.31
2022-08-23T03:13:14.670Z,100963.81
2022-08-23T03:15:43.351Z,100965.94
2022-08-23T03:18:13.004Z,100964.22
2022-08-23T03:20:41.796Z,100965.47
2022-08-23T03:23:13.126Z,100965.69
2022-08-23T03:25:41.565Z,100971.44
2022-08-23T03:28:18.279Z,100976.34
2022-08-23T03:30:46.614Z,100975.66
2022-08-23T03:33:15.763Z,100976.72
2022-08-23T03:35:45.884Z,100982.50
2022-08-23T03:38:16.487Z,100976.28
2022-08-23T03:40:45.186Z,100982.03
2022-08-23T03:43:14.809Z,100978.56
2022-08-23T03:45:42.892Z,100985.38
2022-08-23T03:48:11.465Z,100987.31
2022-08-23T03:50:40.014Z,100978.47
2022-08-23T03:53:08.117Z,100990.66
2022-08-23T03:55:42.726Z,100992.97
2022-08-23T03:58:14.702Z,100995.09
2022-08-23T04:00:42.790Z,100995.47
2022-08-23T04:03:11.482Z,100997.56
2022-08-23T04:05:55.627Z,101001.63
2022-08-23T04:08:31.906Z,101015.91
2022-08-23T04:11:03.315Z,101017.16
2022-08-23T04:13:31.391Z,101018.41
2022-08-23T04:16:05.367Z,101017.94
2022-08-23T04:18:34.884Z,101029.44
2022-08-23T04:21:05.836Z,101027.94
2022-08-23T04:23:34.880Z,101026.38
2022-08-23T04:26:05.862Z,101034.91
2022-08-23T04:28:38.366Z,101031.50
2022-08-23T04:31:06.802Z,101035.31
2022-08-23T04:33:35.730Z,101036.38
2022-08-23T04:36:10.884Z,101039.34
2022-08-23T04:38:38.973Z,101040.38
2022-08-23T04:41:27.595Z,101038.84
2022-08-23T04:43:57.691Z,101043.75
2022-08-23T04:46:27.452Z,101057.84
2022-08-23T04:48:57.584Z,101049.88
2022-08-23T04:51:25.909Z,101055.63
2022-08-23T04:53:55.777Z,101067.81
2022-08-23T04:56:51.836Z,101064.34
2022-08-23T04:59:22.548Z,101057.06
2022-08-23T05:01:50.866Z,101059.16
2022-08-23T05:04:19.197Z,101064.91
2022-08-23T05:06:47.517Z,101057.63
2022-08-23T05:09:19.984Z,101056.97
2022-08-23T05:11:51.110Z,101069.13
2022-08-23T05:14:19.673Z,101072.97
2022-08-23T05:16:47.763Z,101074.00
2022-08-23T05:19:15.963Z,101075.88
2022-08-23T05:21:45.861Z,101076.25
2022-08-23T05:24:15.126Z,101079.03
2022-08-23T05:26:45.963Z,101080.97
2022-08-23T05:29:15.602Z,101078.22
2022-08-23T05:31:51.002Z,101088.44
2022-08-23T05:34:22.964Z,101091.00
2022-08-23T05:36:59.058Z,101088.44
2022-08-23T05:39:36.332Z,101096.56
2022-08-23T05:42:12.253Z,101087.19
2022-08-23T05:44:41.900Z,101088.06
2022-08-23T05:47:13.452Z,101089.78
2022-08-23T05:50:02.744Z,101100.75
2022-08-23T05:52:34.587Z,101095.19
2022-08-23T05:55:02.789Z,101103.34
2022-08-23T05:57:42.744Z,101103.16
2022-08-23T06:00:15.144Z,101104.66
2022-08-23T06:02:53.674Z,101112.63
2022-08-23T06:05:22.473Z,101108.63
2022-08-23T06:07:53.210Z,101111.00
2022-08-23T06:10:24.150Z,101113.22
2022-08-23T06:13:06.158Z,101113.69
2022-08-23T06:15:36.054Z,101117.81
2022-08-23T06:18:05.561Z,101129.41
2022-08-23T06:20:37.301Z,101123.28
2022-08-23T06:23:07.497Z,101122.50
2022-08-23T06:25:37.481Z,101119.13
2022-08-23T06:28:15.039Z,101118.38
2022-08-23T06:30:45.556Z,101120.56
2022-08-23T06:33:35.251Z,101124.31
2022-08-23T06:36:38.567Z,101119.72
2022-08-23T06:39:15.170Z,101125.16
2022-08-23T06:42:00.682Z,101131.50
2022-08-23T06:44:31.614Z,101133.28
2022-08-23T06:47:18.178Z,101133.22
2022-08-23T06:49:55.466Z,101142.94
2022-08-23T06:52:48.178Z,101134.09
2022-08-23T06:55:45.663Z,101136.16
2022-08-23T06:58:27.557Z,101130.34
2022-08-23T07:01:23.466Z,101129.44
2022-08-23T07:04:09.680Z,101138.59
2022-08-23T07:06:53.347Z,101134.09
2022-08-23T07:09:21.554Z,101139.13
2022-08-23T07:11:49.769Z,101141.19
2022-08-23T07:14:19.890Z,101140.88
2022-08-23T07:16:52.178Z,101142.25
2022-08-23T07:19:23.365Z,101145.56
2022-08-23T07:21:58.058Z,101147.13
2022-08-23T07:24:30.778Z,101152.56
2022-08-23T07:27:06.486Z,101149.38
2022-08-23T07:29:37.043Z,101150.28
2022-08-23T07:32:06.117Z,101152.00
2022-08-23T07:34:36.951Z,101153.75
2022-08-23T07:37:11.550Z,101144.53
2022-08-23T07:39:44.551Z,101152.91
2022-08-23T07:42:22.832Z,101145.59
2022-08-23T07:44:54.211Z,101149.00
2022-08-23T07:47:24.816Z,101160.19
2022-08-23T07:49:57.096Z,101158.19
2022-08-23T07:52:25.536Z,101164.44
2022-08-23T07:54:53.627Z,101161.56
2022-08-23T07:57:44.623Z,101172.06
2022-08-23T08:00:30.222Z,101177.16
2022-08-23T08:03:16.423Z,101175.78
2022-08-23T08:06:08.987Z,101162.53
2022-08-23T08:08:37.307Z,101167.63
2022-08-23T08:11:06.724Z,101168.41
2022-08-23T08:13:35.637Z,101160.75
2022-08-23T08:16:06.310Z,101167.97
2022-08-23T08:18:36.957Z,101173.00
2022-08-23T08:21:25.317Z,101160.31
2022-08-23T08:24:16.304Z,101160.84
2022-08-23T08:26:48.131Z,101164.13
2022-08-23T08:29:16.475Z,101167.63
2022-08-23T08:31:53.711Z,101160.16
2022-08-23T08:34:22.569Z,101163.63
2022-08-23T08:36:53.910Z,101171.91
2022-08-23T08:39:25.931Z,101167.44
2022-08-23T08:42:04.300Z,101173.72
2022-08-23T08:44:40.212Z,101169.88
2022-08-23T08:47:12.619Z,101169.91
2022-08-23T08:49:43.574Z,101168.84
2022-08-23T08:52:16.699Z,101172.78
2022-08-23T08:54:48.327Z,101178.66
2022-08-23T08:57:25.193Z,101169.38
2022-08-23T09:00:00.529Z,101173.34
2022-08-23T09:02:33.079Z,101183.72
2022-08-23T09:05:08.915Z,101181.16
2022-08-23T09:07:44.798Z,101174.06
2022-08-23T09:10:21.877Z,101177.34
2022-08-23T09:13:12.287Z,101175.44
2022-08-23T09:15:42.906Z,101184.31
2022-08-23T09:18:12.875Z,101175.47
2022-08-23T09:20:43.360Z,101170.59
2022-08-23T09:23:16.476Z,101177.78
2022-08-23T09:25:52.239Z,101181.31
2022-08-23T09:28:20.693Z,101175.78
2022-08-23T09:30:52.906Z,101177.63
2022-08-23T09:33:22.725Z,101175.16
2022-08-23T09:36:08.407Z,101170.75
2022-08-23T09:38:43.280Z,101174.75
2022-08-23T09:41:20.447Z,101176.56
2022-08-23T09:43:52.618Z,101170.78
2022-08-23T09:46:29.629Z,101175.41
2022-08-23T09:48:59.111Z,101174.38
2022-08-23T09:51:35.009Z,101172.25
2022-08-23T09:54:09.186Z,101170.78
2022-08-23T09:56:39.178Z,101169.50
2022-08-23T09:59:26.976Z,101160.59
2022-08-23T10:02:02.130Z,101155.13
2022-08-23T10:04:40.198Z,101158.38
2022-08-23T10:07:22.625Z,101162.53
2022-08-23T10:09:52.386Z,101165.50
2022-08-23T10:12:20.372Z,101162.25
2022-08-23T10:14:50.471Z,101161.81
2022-08-23T10:17:28.049Z,101154.00
2022-08-23T10:20:01.545Z,101163.97
2022-08-23T10:22:40.397Z,101157.91
2022-08-23T10:25:36.209Z,101159.75
2022-08-23T10:28:39.419Z,101157.59
2022-08-23T10:31:13.563Z,101149.53
2022-08-23T10:33:45.561Z,101148.75
2022-08-23T10:36:16.066Z,101151.13
2022-08-23T10:38:47.391Z,101154.66
2022-08-23T10:41:33.812Z,101151.34
2022-08-23T10:44:10.537Z,101154.56
2022-08-23T10:46:42.881Z,101149.53
2022-08-23T10:49:13.297Z,101153.00
2022-08-23T10:51:43.653Z,101149.69
2022-08-23T10:54:16.196Z,101147.53
2022-08-23T10:56:48.574Z,101143.63
2022-08-23T10:59:24.129Z,101135.75
2022-08-23T11:02:00.947Z,101141.22
2022-08-23T11:04:33.821Z,101129.06
2022-08-23T11:07:18.020Z,101134.47
2022-08-23T11:09:51.585Z,101130.56
2022-08-23T11:12:27.589Z,101143.91
2022-08-23T11:15:17.403Z,101129.81
2022-08-23T11:18:02.381Z,101136.41
2022-08-23T11:20:49.917Z,101132.72
2022-08-23T11:23:38.634Z,101133.31
2022-08-23T11:26:08.522Z,101132.47
2022-08-23T11:28:41.528Z,101140.72
2022-08-23T11:31:22.477Z,101132.22
2022-08-23T11:33:53.999Z,101131.09
2022-08-23T11:36:24.003Z,101126.28
2022-08-23T11:39:02.523Z,101137.34
2022-08-23T11:41:33.125Z,101127.72
2022-08-23T11:44:18.609Z,101124.91
2022-08-23T11:46:57.488Z,101124.91
2022-08-23T11:49:40.449Z,101120.91
2022-08-23T11:52:17.421Z,101121.50
2022-08-23T11:54:54.022Z,101124.06
2022-08-23T11:57:29.295Z,101120.69
2022-08-23T12:00:07.349Z,101123.81
2022-08-23T12:02:49.783Z,101120.72
2022-08-23T12:05:23.547Z,101123.00
2022-08-23T12:07:55.496Z,101110.25
2022-08-23T12:10:25.237Z,101120.22
2022-08-23T12:13:08.719Z,101121.38
2022-08-23T12:15:58.532Z,101119.69
2022-08-23T12:18:26.797Z,101108.09
2022-08-23T12:20:59.190Z,101104.97
2022-08-23T12:23:29.313Z,101108.66
2022-08-23T12:26:08.947Z,101108.66
2022-08-23T12:28:40.252Z,101108.38
2022-08-23T12:31:15.426Z,101096.47
2022-08-23T12:33:52.126Z,101097.34
2022-08-23T12:36:24.159Z,101097.59
2022-08-23T12:38:58.257Z,101105.84
2022-08-23T12:41:27.771Z,101098.47
2022-08-23T12:43:57.298Z,101103.28
2022-08-23T12:46:33.206Z,101101.28
2022-08-23T12:49:01.368Z,101098.47
2022-08-23T12:51:29.697Z,101104.13
2022-08-23T12:54:13.133Z,101097.59
2022-08-23T12:56:41.336Z,101098.47
2022-08-23T12:59:21.660Z,101104.13
2022-08-23T13:01:50.179Z,101104.97
2022-08-23T13:04:18.784Z,101103.28
2022-08-23T13:06:50.105Z,101106.97
2022-08-23T13:09:23.834Z,101107.81
2022-08-23T13:11:52.630Z,101106.97
2022-08-23T13:14:24.630Z,101109.78
2022-08-23T13:16:52.988Z,101109.78
2022-08-23T13:19:26.241Z,101109.78
2022-08-23T13:22:10.507Z,101114.34
2022-08-23T13:24:40.634Z,101110.66
2022-08-23T13:27:13.160Z,101111.78
2022-08-23T13:29:50.119Z,101107.50
2022-08-23T13:32:29.727Z,101108.91
2022-08-23T13:35:12.676Z,101104.06
2022-08-23T13:37:45.317Z,101105.69
2022-08-23T13:40:17.618Z,101094.09
2022-08-23T13:42:54.563Z,101099.72
2022-08-23T13:45:25.076Z,101096.59
2022-08-23T13:47:58.297Z,101086.91
2022-08-23T13:50:27.704Z,101097.69
2022-08-23T13:53:13.847Z,101089.72
2022-08-23T13:55:50.370Z,101089.16
2022-08-23T13:58:25.652Z,101084.91
2022-08-23T14:00:55.330Z,101088.00
2022-08-23T14:03:24.575Z,101086.28
2022-08-23T14:05:52.901Z,101085.44
2022-08-23T14:08:21.106Z,101082.88
2022-08-23T14:10:50.978Z,101096.19
2022-08-23T14:13:19.299Z,101091.63
2022-08-23T14:15:56.589Z,101091.09
2022-08-23T14:18:26.742Z,101095.03
2022-08-23T14:20:54.704Z,101091.34
2022-08-23T14:23:22.784Z,101092.75
2022-08-23T14:25:55.187Z,101091.88
2022-08-23T14:28:23.630Z,101093.88
2022-08-23T14:30:52.111Z,101095.84
2022-08-23T14:33:21.838Z,101093.00
2022-08-23T14:35:49.798Z,101093.00
2022-08-23T14:38:18.353Z,101093.88
2022-08-23T14:40:50.175Z,101090.19
2022-08-23T14:43:20.638Z,101096.69
2022-08-23T14:45:48.792Z,101103.47
2022-08-23T14:48:17.520Z,101097.81
2022-08-23T14:50:46.805Z,101093.28
2022-08-23T14:53:15.845Z,101095.28
2022-08-23T14:55:44.044Z,101097.25
2022-08-23T14:58:11.894Z,101094.66
2022-08-23T15:00:41.771Z,101096.63
2022-08-23T15:03:10.638Z,101089.28
2022-08-23T15:05:38.777Z,101096.91
2022-08-23T15:08:06.854Z,101093.47
2022-08-23T15:10:50.549Z,101090.66
2022-08-23T15:13:27.414Z,101094.91
2022-08-23T15:16:02.659Z,101089.78
2022-08-23T15:18:31.831Z,101094.00
2022-08-23T15:20:59.946Z,101087.78
2022-08-23T15:23:28.469Z,101088.03
2022-08-23T15:25:57.388Z,101086.59
2022-08-23T15:28:25.614Z,101083.19
2022-08-23T15:30:54.062Z,101087.44
2022-08-23T15:33:30.683Z,101085.13
2022-08-23T15:35:59.069Z,101089.34
2022-08-23T15:38:27.030Z,101093.00
2022-08-23T15:40:55.484Z,101091.56
2022-08-23T15:43:33.892Z,101085.59
2022-08-23T15:46:05.116Z,101086.13
2022-08-23T15:48:37.001Z,101082.97
2022-08-23T15:51:06.172Z,101076.13
2022-08-23T15:53:34.257Z,101080.34
2022-08-23T15:56:05.798Z,101075.50
2022-08-23T15:58:34.125Z,101077.75
2022-08-23T16:01:02.223Z,101077.72
2022-08-23T16:03:30.574Z,101078.22
2022-08-23T16:06:00.050Z,101077.03
2022-08-23T16:08:29.813Z,101080.94
2022-08-23T16:10:58.614Z,101070.19
2022-08-23T16:13:28.019Z,101068.16
2022-08-23T16:15:55.974Z,101067.00
2022-08-23T16:18:24.054Z,101072.31
2022-08-23T16:20:54.220Z,101075.63
2022-08-23T16:23:26.462Z,101086.66
2022-08-23T16:25:59.107Z,101083.47
2022-08-23T16:28:29.481Z,101086.84
2022-08-23T16:30:57.732Z,101084.81
2022-08-23T16:33:25.988Z,101078.00
2022-08-23T16:36:01.146Z,101087.00
2022-08-23T16:38:30.907Z,101073.69
2022-08-23T16:40:58.992Z,101079.84
2022-08-23T16:43:27.199Z,101085.16
2022-08-23T16:45:55.577Z,101072.69
2022-08-23T16:48:23.721Z,101080.81
2022-08-23T16:50:52.036Z,101083.34
2022-08-23T16:53:20.137Z,101080.41
2022-08-23T16:55:49.890Z,101085.75
2022-08-23T16:58:18.088Z,101093.00
2022-08-23T17:00:46.203Z,101096.38
2022-08-23T17:03:15.206Z,101087.81
2022-08-23T17:05:43.531Z,101083.81
2022-08-23T17:08:19.887Z,101084.59
2022-08-23T17:10:49.412Z,101082.56
2022-08-23T17:13:18.706Z,101076.84
2022-08-23T17:15:46.906Z,101089.78
2022-08-23T17:18:15.571Z,101088.56
2022-08-23T17:20:43.790Z,101082.56
2022-08-23T17:23:11.983Z,101088.72
2022-08-23T17:25:41.750Z,101081.06
2022-08-23T17:28:11.626Z,101095.69
2022-08-23T17:30:39.698Z,101088.84
2022-08-23T17:33:08.504Z,101093.28
2022-08-23T17:35:37.300Z,101094.94
2022-08-23T17:38:07.068Z,101085.00
2022-08-23T17:40:36.824Z,101090.31
2022-08-23T17:43:07.306Z,101090.84
2022-08-23T17:45:40.365Z,101098.94
2022-08-23T17:48:08.391Z,101105.94
2022-08-23T17:50:37.549Z,101106.50
2022-08-23T17:53:05.759Z,101101.34
2022-08-23T17:55:34.442Z,101111.44
2022-08-23T17:58:04.222Z,101114.97
2022-08-23T18:00:33.410Z,101110.97
2022-08-23T18:03:03.150Z,101109.75
2022-08-23T18:05:33.384Z,101115.31
2022-08-23T18:08:01.920Z,101127.34
2022-08-23T18:10:31.087Z,101124.44
2022-08-23T18:13:00.001Z,101122.41
2022-08-23T18:15:28.937Z,101119.47
2022-08-23T18:17:58.075Z,101125.88
2022-08-23T18:20:28.814Z,101121.00
2022-08-23T18:22:57.416Z,101130.22
2022-08-23T18:25:26.189Z,101128.97
2022-08-23T18:28:10.030Z,101131.69
2022-08-23T18:30:39.254Z,101130.75
2022-08-23T18:33:08.072Z,101138.22
2022-08-23T18:35:42.021Z,101145.47
2022-08-23T18:38:10.344Z,101148.78
2022-08-23T18:40:45.432Z,101151.50
2022-08-23T18:43:14.066Z,101156.16
2022-08-23T18:45:42.187Z,101145.41
2022-08-23T18:48:12.053Z,101148.94
2022-08-23T18:50:41.548Z,101151.66
2022-08-23T18:53:09.885Z,101156.03
2022-08-23T18:55:38.314Z,101160.47
2022-08-23T18:58:07.965Z,101162.91
2022-08-23T19:00:36.522Z,101167.34
2022-08-23T19:03:04.953Z,101163.28
2022-08-23T19:05:41.735Z,101175.91
2022-08-23T19:08:12.529Z,101173.81
2022-08-23T19:10:41.097Z,101170.66
2022-08-23T19:13:09.994Z,101173.31
2022-08-23T19:15:40.654Z,101185.97
2022-08-23T19:18:08.806Z,101189.25
2022-08-23T19:20:39.167Z,101188.00
2022-08-23T19:23:07.632Z,101198.06
2022-08-23T19:25:38.665Z,101193.97
2022-08-23T19:28:07.369Z,101193.00
2022-08-23T19:30:35.835Z,101197.66
2022-08-23T19:33:04.888Z,101196.41
2022-08-23T19:35:33.305Z,101199.94
2022-08-23T19:38:01.405Z,101194.19
2022-08-23T19:40:29.737Z,101202.50
2022-08-23T19:42:59.946Z,101197.84
2022-08-23T19:45:32.188Z,101204.44
2022-08-23T19:48:00.942Z,101198.03
2022-08-23T19:50:29.342Z,101197.88
2022-08-23T19:52:57.605Z,101209.00
2022-08-23T19:55:27.432Z,101211.03
2022-08-23T19:57:55.993Z,101207.22
2022-08-23T20:00:26.571Z,101209.03
2022-08-23T20:02:54.919Z,101209.72
2022-08-23T20:05:22.885Z,101206.78
2022-08-23T20:07:51.311Z,101211.19
2022-08-23T20:10:19.407Z,101220.94
2022-08-23T20:12:47.473Z,101217.94
2022-08-23T20:15:16.645Z,101221.47
2022-08-23T20:17:46.405Z,101232.56
2022-08-23T20:20:14.853Z,101225.66
2022-08-23T20:23:00.455Z,101227.25
2022-08-23T20:25:30.762Z,101232.69
2022-08-23T20:27:59.009Z,101231.47
2022-08-23T20:30:27.446Z,101234.94
2022-08-23T20:32:57.010Z,101228.97
2022-08-23T20:35:25.292Z,101222.06
2022-08-23T20:37:53.377Z,101220.84
2022-08-23T20:40:21.912Z,101226.28
2022-08-23T20:42:51.110Z,101228.72
2022-08-23T20:45:19.297Z,101234.16
2022-08-23T20:47:47.384Z,101235.69
2022-08-23T20:50:16.779Z,101236.63
2022-08-23T20:52:44.882Z,101231.69
2022-08-23T20:55:15.464Z,101232.63
2022-08-23T20:57:43.444Z,101234.41
2022-08-23T21:00:12.833Z,101230.53
2022-08-23T21:02:40.913Z,101237.72
2022-08-23T21:05:09.722Z,101232.19
2022-08-23T21:07:39.601Z,101233.72
2022-08-23T21:10:10.310Z,101236.34
2022-08-23T21:12:38.404Z,101237.00
2022-08-23T21:15:10.782Z,101243.06
2022-08-23T21:17:39.241Z,101250.19
2022-08-23T21:20:08.065Z,101248.09
2022-08-23T21:22:36.244Z,101250.47
2022-08-23T21:25:06.126Z,101252.88
2022-08-23T21:27:34.701Z,101253.56
2022-08-23T21:30:02.790Z,101254.25
2022-08-23T21:32:31.083Z,101242.59
2022-08-23T21:34:59.538Z,101246.94
2022-08-23T21:37:27.610Z,101242.03
2022-08-23T21:39:56.720Z,101245.50
2022-08-23T21:42:26.302Z,101250.69
2022-08-23T21:44:54.741Z,101246.00
2022-08-23T21:47:23.058Z,101253.06
2022-08-23T21:49:51.143Z,101251.81
2022-08-23T21:52:19.233Z,101246.66
2022-08-23T21:54:47.303Z,101249.06
2022-08-23T21:57:15.384Z,101251.44
2022-08-23T21:59:44.909Z,101241.53
2022-08-23T22:02:13.031Z,101252.34
2022-08-23T22:04:41.073Z,101257.72
2022-08-23T22:07:09.034Z,101253.44
2022-08-23T22:09:37.358Z,101253.00
2022-08-23T22:12:06.631Z,101247.22
2022-08-23T22:14:34.601Z,101253.25
2022-08-23T22:17:04.388Z,101258.44
2022-08-23T22:19:32.435Z,101255.22
2022-08-23T22:22:01.133Z,101253.94
2022-08-23T22:24:29.200Z,101258.28
2022-08-23T22:26:57.519Z,101252.19
2022-08-23T22:29:25.722Z,101253.53
2022-08-23T22:31:53.803Z,101247.69
2022-08-23T22:34:23.209Z,101257.41
2022-08-23T22:36:51.466Z,101253.97
2022-08-23T22:39:20.696Z,101249.66
2022-08-23T22:41:48.774Z,101255.47
2022-08-23T22:44:17.354Z,101259.59
2022-08-23T22:46:45.361Z,101258.06
2022-08-23T22:49:13.928Z,101254.63
2022-08-23T22:51:43.497Z,101255.91
2022-08-23T22:54:12.421Z,101250.78
2022-08-23T22:56:41.829Z,101256.59
2022-08-23T22:59:10.625Z,101261.75
2022-08-23T23:01:39.603Z,101255.53
2022-08-23T23:04:09.263Z,101257.03
2022-08-23T23:06:37.279Z,101252.72
2022-08-23T23:09:07.388Z,101252.97
2022-08-23T23:11:36.067Z,101252.50
2022-08-23T23:14:05.504Z,101252.94
2022-08-23T23:16:36.542Z,101257.25
2022-08-23T23:19:23.356Z,101256.78
2022-08-23T23:21:53.358Z,101258.31
2022-08-23T23:24:25.278Z,101255.94
2022-08-23T23:26:53.605Z,101265.84
2022-08-23T23:29:21.920Z,101253.34
2022-08-23T23:31:50.006Z,101257.44
2022-08-23T23:34:19.444Z,101249.47
2022-08-23T23:36:48.092Z,101252.69
2022-08-23T23:39:16.645Z,101250.09
2022-08-23T23:41:46.202Z,101252.28
2022-08-23T23:44:14.130Z,101249.91
2022-08-23T23:46:46.443Z,101257.63
2022-08-23T23:49:16.300Z,101265.41
2022-08-23T23:51:52.064Z,101263.00
2022-08-23T23:54:20.137Z,101264.28
2022-08-23T23:56:50.137Z,101260.00
2022-08-23T23:59:18.822Z,101265.16
